Time;durP1;ratioP1;P1;durP2;ratioP2;P2;SDS_P1;SDS_P2;PMS_P1;PMS_P2;Temp;Humidity;BMP_temperature;BMP_pressure;BME280_temperature;BME280_humidity;BME280_pressure;Samples;Min_cycle;Max_cycle;Signal;HPM_P1;HPM_P2
2021/06/11 00:00:49;;;;;;;5.07;3.78;;;19.20;89.30;;;;;;4789908;29;20050;-82
2021/06/11 00:03:17;;;;;;;5.05;3.65;;;19.20;89.40;;;;;;4775969;29;20054;-85
2021/06/11 00:05:44;;;;;;;4.28;3.42;;;19.20;89.80;;;;;;4793326;29;20055;-82
2021/06/11 00:08:12;;;;;;;4.10;3.70;;;19.10;89.70;;;;;;4778434;29;20329;-82
2021/06/11 00:10:39;;;;;;;3.85;3.33;;;19.10;89.90;;;;;;4792433;29;20042;-83
2021/06/11 00:13:07;;;;;;;5.63;3.85;;;19.10;90.00;;;;;;4762313;29;20054;-83
2021/06/11 00:15:37;;;;;;;4.85;4.28;;;19.10;90.00;;;;;;4788691;29;20039;-83
2021/06/11 00:18:04;;;;;;;4.25;3.85;;;19.10;90.10;;;;;;4773653;29;20043;-82
2021/06/11 00:20:39;;;;;;;5.20;3.90;;;19.10;90.20;;;;;;4773623;29;20031;-90
2021/06/11 00:23:23;;;;;;;4.18;3.67;;;19.10;90.30;;;;;;4777149;29;20043;-91
2021/06/11 00:26:23;;;;;;;4.50;3.80;;;19.10;90.40;;;;;;4787275;29;20051;-86
2021/06/11 00:29:57;;;;;;;4.30;3.90;;;19.00;90.40;;;;;;4794940;29;20046;-89
2021/06/11 00:32:24;;;;;;;6.20;4.32;;;18.90;90.50;;;;;;4785773;29;20045;-87
2021/06/11 00:34:53;;;;;;;5.18;4.35;;;18.90;90.70;;;;;;4779590;29;20038;-84
2021/06/11 00:37:23;;;;;;;5.72;4.57;;;18.90;90.90;;;;;;4788865;29;20042;-85
2021/06/11 00:39:51;;;;;;;4.90;4.40;;;18.80;90.80;;;;;;4804560;29;20592;-86
2021/06/11 00:42:18;;;;;;;5.35;4.28;;;18.70;91.00;;;;;;4791755;29;20047;-84
2021/06/11 00:44:45;;;;;;;5.53;4.68;;;18.70;91.00;;;;;;4788159;29;20050;-84
2021/06/11 00:47:11;;;;;;;7.85;5.30;;;18.60;91.30;;;;;;4786315;29;20045;-83
2021/06/11 00:49:38;;;;;;;7.18;4.78;;;18.70;91.40;;;;;;4806441;29;20055;-84
2021/06/11 00:52:08;;;;;;;7.47;5.22;;;18.60;91.40;;;;;;4794426;29;20042;-84
2021/06/11 00:54:34;;;;;;;5.72;5.05;;;18.60;91.60;;;;;;4786233;29;20047;-84
2021/06/11 00:57:04;;;;;;;6.70;5.05;;;18.60;91.60;;;;;;4778139;29;20038;-86
2021/06/11 00:59:59;;;;;;;6.35;4.88;;;18.60;91.60;;;;;;4808997;29;20053;-85
2021/06/11 01:03:15;;;;;;;6.10;5.40;;;18.60;91.90;;;;;;4794116;29;20054;-89
2021/06/11 01:05:42;;;;;;;6.22;5.63;;;18.50;92.10;;;;;;4792571;29;20058;-85
2021/06/11 01:08:25;;;;;;;5.95;5.30;;;18.50;92.10;;;;;;4793620;29;20046;-88
2021/06/11 01:10:52;;;;;;;6.05;4.82;;;18.50;92.20;;;;;;4798021;29;20038;-85
2021/06/11 01:13:19;;;;;;;6.57;4.93;;;18.50;92.20;;;;;;4799884;29;20046;-86
2021/06/11 01:15:48;;;;;;;6.95;5.13;;;18.50;92.30;;;;;;4804192;29;20157;-86
2021/06/11 01:18:16;;;;;;;7.88;6.07;;;18.50;92.40;;;;;;4793216;29;20049;-86
2021/06/11 01:20:54;;;;;;;8.38;5.75;;;18.50;92.50;;;;;;4794008;29;20387;-91
2021/06/11 01:27:07;;;;;;;5.70;4.78;;;18.40;92.60;;;;;;4789689;29;20054;-84
2021/06/11 01:29:34;;;;;;;7.28;4.85;;;18.40;92.50;;;;;;4806155;29;20109;-86
2021/06/11 01:32:05;;;;;;;7.82;5.28;;;18.30;92.60;;;;;;4781167;29;20034;-88
2021/06/11 01:34:37;;;;;;;6.43;5.00;;;18.40;92.70;;;;;;4776818;29;20046;-88
2021/06/11 01:37:09;;;;;;;6.93;4.82;;;18.30;92.80;;;;;;4792969;29;20047;-87
2021/06/11 01:39:38;;;;;;;6.30;5.15;;;18.30;92.80;;;;;;4789078;29;20054;-84
2021/06/11 01:42:07;;;;;;;5.13;4.35;;;18.30;92.90;;;;;;4806722;29;20039;-83
2021/06/11 01:44:37;;;;;;;4.90;4.40;;;18.30;92.90;;;;;;4792118;29;20067;-83
2021/06/11 01:47:05;;;;;;;4.65;4.07;;;18.30;92.90;;;;;;4794650;29;20056;-83
2021/06/11 01:49:32;;;;;;;7.20;5.07;;;18.30;93.00;;;;;;4810124;29;20026;-83
2021/06/11 01:52:02;;;;;;;5.63;4.57;;;18.30;93.00;;;;;;4810507;29;20031;-83
2021/06/11 01:54:32;;;;;;;5.00;4.60;;;18.20;93.10;;;;;;4807230;29;20372;-83
2021/06/11 01:57:00;;;;;;;5.90;4.88;;;18.20;93.20;;;;;;4790918;29;20055;-83
2021/06/11 01:59:27;;;;;;;6.03;4.47;;;18.20;93.20;;;;;;4779065;29;20050;-83
2021/06/11 02:01:58;;;;;;;5.20;4.70;;;18.20;93.30;;;;;;4796307;29;20070;-85
2021/06/11 02:04:25;;;;;;;5.43;4.40;;;18.20;93.40;;;;;;4781353;29;20047;-84
2021/06/11 02:06:52;;;;;;;5.55;4.07;;;18.10;93.30;;;;;;4769580;29;20061;-83
2021/06/11 02:09:24;;;;;;;6.93;4.78;;;18.10;93.40;;;;;;4793841;29;20046;-84
2021/06/11 02:11:51;;;;;;;5.00;4.38;;;18.10;93.50;;;;;;4771350;29;20050;-83
2021/06/11 02:14:35;;;;;;;6.20;4.40;;;18.10;93.50;;;;;;4792763;29;20046;-89
2021/06/11 02:18:18;;;;;;;3.83;3.50;;;18.10;93.60;;;;;;4806424;29;20741;-89
2021/06/11 02:33:21;;;;;;;6.78;5.20;;;17.80;93.70;;;;;;4830850;29;20136;-85
2021/06/11 02:35:48;;;;;;;5.57;5.00;;;17.80;93.80;;;;;;4821762;29;20417;-86
2021/06/11 02:38:14;;;;;;;6.05;5.07;;;17.70;93.90;;;;;;4802219;29;20518;-85
2021/06/11 02:40:41;;;;;;;4.68;4.00;;;17.80;93.90;;;;;;4799289;29;20034;-85
2021/06/11 02:43:12;;;;;;;4.82;4.22;;;17.70;93.90;;;;;;4808627;29;20496;-85
2021/06/11 02:46:07;;;;;;;6.95;5.50;;;17.80;94.00;;;;;;4814119;29;20525;-85
2021/06/11 02:48:55;;;;;;;6.63;4.35;;;17.70;94.00;;;;;;4793071;29;20072;-85
2021/06/11 02:51:39;;;;;;;5.07;4.57;;;17.70;94.00;;;;;;4811885;29;20862;-84
2021/06/11 02:54:14;;;;;;;5.28;4.63;;;17.70;94.00;;;;;;4810829;29;20046;-85
2021/06/11 02:56:47;;;;;;;5.25;4.22;;;17.70;94.00;;;;;;4823915;29;20065;-85
2021/06/11 02:59:20;;;;;;;6.40;4.32;;;17.60;94.00;;;;;;4810618;29;20501;-85
2021/06/11 03:01:54;;;;;;;6.50;5.20;;;17.50;94.00;;;;;;4816607;29;20054;-84
2021/06/11 03:04:25;;;;;;;5.30;4.32;;;17.50;94.10;;;;;;4793470;29;20048;-85
2021/06/11 03:06:53;;;;;;;5.22;4.72;;;17.40;94.00;;;;;;4811159;29;20041;-85
2021/06/11 03:09:23;;;;;;;7.10;5.15;;;17.30;94.10;;;;;;4826353;29;20046;-84
2021/06/11 03:11:54;;;;;;;8.93;6.38;;;17.30;94.10;;;;;;4782625;29;20050;-83
2021/06/11 03:14:21;;;;;;;7.30;6.00;;;17.20;94.30;;;;;;4815693;29;20046;-84
2021/06/11 03:16:56;;;;;;;9.00;6.38;;;17.20;94.30;;;;;;4777444;29;20058;-84
2021/06/11 03:19:27;;;;;;;5.82;5.28;;;17.20;94.40;;;;;;4801628;29;20042;-84
2021/06/11 03:22:10;;;;;;;7.50;6.20;;;17.20;94.30;;;;;;4802230;29;20057;-84
2021/06/11 03:24:59;;;;;;;7.05;6.22;;;17.20;94.40;;;;;;4823039;29;20042;-84
2021/06/11 03:27:46;;;;;;;8.15;6.80;;;17.20;94.40;;;;;;4796967;29;20034;-84
2021/06/11 03:30:15;;;;;;;8.15;6.45;;;17.20;94.50;;;;;;4798121;29;20050;-84
2021/06/11 03:33:00;;;;;;;8.52;7.05;;;17.20;94.50;;;;;;4797321;29;20490;-85
2021/06/11 03:35:41;;;;;;;8.52;7.18;;;17.20;94.60;;;;;;4808845;29;20494;-85
2021/06/11 03:38:10;;;;;;;8.23;7.13;;;17.20;94.60;;;;;;4793105;29;20038;-84
2021/06/11 03:40:40;;;;;;;10.00;6.60;;;17.10;94.60;;;;;;4794462;29;20073;-84
2021/06/11 03:43:09;;;;;;;6.97;6.28;;;17.10;94.70;;;;;;4813558;29;20438;-85
2021/06/11 03:45:36;;;;;;;7.30;6.28;;;17.10;94.70;;;;;;4790439;29;20049;-84
2021/06/11 03:48:05;;;;;;;7.88;7.10;;;17.10;94.80;;;;;;4811619;29;20053;-84
2021/06/11 03:50:35;;;;;;;9.05;8.10;;;17.00;94.90;;;;;;4794142;29;20057;-83
2021/06/11 03:53:04;;;;;;;10.13;9.05;;;17.00;94.90;;;;;;4803438;29;20038;-90
2021/06/11 03:55:40;;;;;;;9.85;8.85;;;17.10;95.00;;;;;;4798701;29;20491;-90
2021/06/11 03:58:23;;;;;;;10.18;9.02;;;17.10;95.00;;;;;;4796713;29;20494;-90
2021/06/11 04:00:51;;;;;;;11.30;9.95;;;17.10;95.00;;;;;;4791060;29;20059;-90
2021/06/11 04:03:18;;;;;;;10.63;9.40;;;17.10;95.00;;;;;;4811836;29;20038;-89
2021/06/11 04:05:45;;;;;;;12.60;10.65;;;17.20;95.00;;;;;;4797203;29;20053;-90
2021/06/11 04:08:17;;;;;;;10.82;9.73;;;17.20;95.10;;;;;;4792893;29;20050;-90
2021/06/11 04:10:50;;;;;;;10.95;9.55;;;17.20;95.10;;;;;;4791980;29;20045;-89
2021/06/11 04:13:37;;;;;;;13.27;11.85;;;17.30;95.10;;;;;;4805302;29;20034;-90
2021/06/11 04:16:09;;;;;;;10.20;9.10;;;17.30;95.20;;;;;;4805560;29;20066;-91
2021/06/11 04:18:38;;;;;;;11.40;9.45;;;17.40;95.10;;;;;;4805937;29;20066;-90
2021/06/11 04:21:08;;;;;;;14.00;10.88;;;17.50;95.10;;;;;;4792341;29;20129;-89
2021/06/11 04:23:39;;;;;;;11.48;10.25;;;17.50;95.10;;;;;;4797900;29;20549;-90
2021/06/11 04:26:08;;;;;;;10.30;9.32;;;17.60;95.10;;;;;;4810986;29;20424;-90
2021/06/11 04:28:35;;;;;;;10.38;9.30;;;17.60;95.00;;;;;;4789439;29;20038;-89
2021/06/11 04:31:02;;;;;;;10.95;9.82;;;17.70;95.00;;;;;;4796817;29;20045;-89
2021/06/11 04:33:30;;;;;;;11.10;9.75;;;17.80;94.90;;;;;;4794453;29;20049;-91
2021/06/11 04:35:58;;;;;;;10.65;9.50;;;17.90;94.80;;;;;;4793678;29;20054;-90
2021/06/11 04:38:25;;;;;;;10.68;8.52;;;18.00;94.70;;;;;;4786315;29;20053;-86
2021/06/11 04:40:53;;;;;;;11.55;10.30;;;18.10;94.70;;;;;;4810141;29;20046;-88
2021/06/11 04:43:24;;;;;;;11.13;9.77;;;18.20;94.60;;;;;;4766622;29;20046;-83
2021/06/11 04:45:51;;;;;;;13.93;10.43;;;18.30;94.60;;;;;;4792973;29;20486;-88
2021/06/11 04:48:18;;;;;;;12.35;10.23;;;18.40;94.50;;;;;;4793795;29;20045;-86
2021/06/11 04:50:44;;;;;;;11.50;9.63;;;18.50;94.40;;;;;;4806214;29;20050;-85
2021/06/11 04:53:11;;;;;;;12.23;10.43;;;18.60;94.30;;;;;;4808073;29;20134;-84
2021/06/11 04:55:37;;;;;;;12.35;10.25;;;18.70;94.20;;;;;;4796536;29;20414;-85
2021/06/11 04:58:04;;;;;;;12.35;10.52;;;18.90;94.10;;;;;;4806206;29;20050;-85
2021/06/11 05:00:30;;;;;;;13.27;11.60;;;19.00;94.00;;;;;;4798183;29;20409;-87
2021/06/11 05:02:57;;;;;;;12.90;11.13;;;19.10;93.80;;;;;;4793069;29;20046;-87
2021/06/11 05:05:23;;;;;;;12.60;10.73;;;19.20;93.70;;;;;;4808216;29;20050;-85
2021/06/11 05:07:50;;;;;;;12.77;10.23;;;19.30;93.60;;;;;;4804993;29;21350;-85
2021/06/11 05:10:17;;;;;;;11.10;9.93;;;19.50;93.50;;;;;;4793675;29;20041;-86
2021/06/11 05:12:43;;;;;;;10.95;9.40;;;19.60;93.30;;;;;;4779793;29;20046;-87
2021/06/11 05:15:11;;;;;;;10.65;8.77;;;19.70;93.20;;;;;;4786722;29;20055;-87
2021/06/11 05:17:37;;;;;;;12.38;9.70;;;19.80;93.00;;;;;;4827909;29;20049;-83
2021/06/11 05:20:05;;;;;;;9.82;8.18;;;19.90;92.90;;;;;;4828334;29;20045;-88
2021/06/11 05:22:31;;;;;;;11.27;9.32;;;20.10;92.70;;;;;;4780525;29;20390;-90
2021/06/11 05:24:59;;;;;;;13.85;11.98;;;20.20;92.60;;;;;;4796033;29;20053;-89
2021/06/11 05:27:26;;;;;;;10.88;9.77;;;20.30;92.40;;;;;;4799280;29;20050;-90
2021/06/11 05:29:53;;;;;;;11.57;10.02;;;20.40;92.30;;;;;;4819497;29;20042;-90
2021/06/11 05:32:28;;;;;;;11.35;8.60;;;20.50;92.20;;;;;;4801330;29;20047;-91
2021/06/11 05:34:58;;;;;;;10.63;9.55;;;20.60;92.00;;;;;;4798112;29;20046;-92
2021/06/11 05:37:24;;;;;;;12.35;10.35;;;20.80;91.80;;;;;;4816436;29;20043;-88
2021/06/11 05:39:53;;;;;;;11.13;9.98;;;20.90;91.90;;;;;;4814398;29;20053;-91
2021/06/11 05:42:20;;;;;;;10.52;9.48;;;21.10;91.50;;;;;;4807503;29;20053;-92
2021/06/11 05:44:47;;;;;;;9.90;8.90;;;21.20;91.30;;;;;;4814695;29;20053;-90
2021/06/11 05:47:13;;;;;;;10.52;9.45;;;21.30;91.00;;;;;;4796427;29;20053;-91
2021/06/11 05:49:40;;;;;;;10.32;9.23;;;21.30;90.80;;;;;;4798348;29;20042;-92
2021/06/11 05:52:06;;;;;;;9.77;8.63;;;21.20;90.80;;;;;;4801153;29;20049;-90
2021/06/11 05:54:33;;;;;;;10.23;9.20;;;21.20;90.80;;;;;;4791347;29;20061;-91
2021/06/11 05:57:00;;;;;;;12.43;9.73;;;21.20;90.80;;;;;;4773405;29;20046;-91
2021/06/11 05:59:26;;;;;;;10.68;9.57;;;21.30;90.70;;;;;;4782137;29;20058;-91
2021/06/11 06:01:53;;;;;;;10.63;9.52;;;21.50;90.60;;;;;;4778392;29;20053;-91
2021/06/11 06:04:20;;;;;;;10.18;9.10;;;21.80;90.20;;;;;;4813800;29;20820;-91
2021/06/11 06:06:46;;;;;;;11.55;9.48;;;21.90;89.80;;;;;;4795223;29;20038;-91
2021/06/11 06:09:13;;;;;;;9.85;8.38;;;22.00;89.40;;;;;;4813630;29;20049;-92
2021/06/11 06:11:40;;;;;;;12.10;10.65;;;22.00;89.10;;;;;;4798680;29;20478;-91
2021/06/11 06:14:06;;;;;;;11.40;9.55;;;22.00;89.20;;;;;;4818332;29;20042;-92
2021/06/11 06:16:33;;;;;;;10.07;9.07;;;21.80;89.40;;;;;;4809104;29;20057;-91
2021/06/11 06:18:59;;;;;;;7.43;6.70;;;21.70;89.60;;;;;;4804895;29;20042;-92
2021/06/11 06:21:30;;;;;;;9.43;6.90;;;21.70;89.60;;;;;;4802252;29;20050;-91
2021/06/11 06:23:58;;;;;;;8.82;6.43;;;21.90;89.60;;;;;;4806568;29;20046;-91
2021/06/11 06:26:25;;;;;;;8.18;7.38;;;22.20;89.10;;;;;;4800144;29;20042;-91
2021/06/11 06:28:52;;;;;;;8.15;7.35;;;22.60;88.10;;;;;;4788755;29;20042;-91
2021/06/11 06:31:19;;;;;;;9.18;8.10;;;23.00;87.20;;;;;;4799306;29;20411;-91
2021/06/11 06:33:48;;;;;;;7.97;7.07;;;23.30;86.00;;;;;;4795490;29;20034;-92
2021/06/11 06:36:15;;;;;;;8.50;7.63;;;23.50;85.40;;;;;;4803118;29;20047;-90
2021/06/11 06:38:42;;;;;;;9.50;6.28;;;23.60;84.70;;;;;;4784955;29;20053;-92
2021/06/11 06:41:09;;;;;;;7.50;6.75;;;23.70;84.60;;;;;;4800284;29;20057;-91
2021/06/11 06:43:35;;;;;;;7.35;6.30;;;23.70;84.30;;;;;;4800002;29;20490;-92
2021/06/11 06:46:02;;;;;;;6.95;5.88;;;23.80;84.10;;;;;;4814297;29;20062;-91
2021/06/11 06:48:31;;;;;;;7.57;6.68;;;23.90;83.70;;;;;;4802523;29;20046;-93
2021/06/11 06:50:58;;;;;;;7.47;6.68;;;24.00;83.20;;;;;;4815446;29;20148;-85
2021/06/11 06:53:25;;;;;;;5.45;4.55;;;24.10;83.00;;;;;;4811254;29;20042;-86
2021/06/11 06:55:51;;;;;;;10.77;6.68;;;24.20;82.80;;;;;;4795702;29;20509;-84
2021/06/11 06:58:18;;;;;;;8.07;5.78;;;24.30;82.40;;;;;;4813572;29;20481;-84
2021/06/11 07:00:45;;;;;;;8.60;6.97;;;24.40;81.70;;;;;;4811821;29;20050;-85
2021/06/11 07:03:11;;;;;;;6.00;5.40;;;24.50;81.10;;;;;;4795917;29;20042;-84
2021/06/11 07:05:38;;;;;;;8.05;5.70;;;24.50;81.00;;;;;;4805302;29;20059;-85
2021/06/11 07:08:05;;;;;;;7.22;6.43;;;24.60;80.90;;;;;;4795886;29;20039;-85
2021/06/11 07:10:31;;;;;;;6.10;5.50;;;24.60;80.20;;;;;;4809924;29;20041;-85
2021/06/11 07:12:58;;;;;;;8.52;5.93;;;24.60;80.10;;;;;;4808521;29;20411;-85
2021/06/11 07:15:25;;;;;;;6.82;6.22;;;24.70;79.90;;;;;;4812617;29;20094;-85
2021/06/11 07:17:55;;;;;;;6.68;5.97;;;24.70;79.60;;;;;;4818230;29;20137;-85
2021/06/11 07:20:22;;;;;;;6.47;5.32;;;24.80;79.40;;;;;;4793078;29;20049;-85
2021/06/11 07:22:49;;;;;;;6.78;5.82;;;24.90;79.10;;;;;;4796319;29;20050;-85
2021/06/11 07:25:16;;;;;;;8.05;5.80;;;25.00;78.90;;;;;;4794013;29;20058;-86
2021/06/11 07:27:43;;;;;;;8.52;6.00;;;25.10;78.70;;;;;;4812012;29;20061;-85
2021/06/11 07:30:13;;;;;;;8.02;5.72;;;25.20;78.40;;;;;;4789157;29;20054;-86
2021/06/11 07:32:42;;;;;;;5.55;5.00;;;25.30;77.90;;;;;;4823639;29;20409;-85
2021/06/11 07:35:14;;;;;;;8.18;6.18;;;25.40;77.80;;;;;;4813890;29;20061;-93
2021/06/11 07:37:42;;;;;;;11.93;10.25;;;25.60;77.50;;;;;;4810313;29;20079;-92
2021/06/11 07:40:10;;;;;;;7.78;6.22;;;25.70;76.80;;;;;;4798213;29;20042;-93
2021/06/11 07:42:40;;;;;;;8.32;7.45;;;25.70;76.80;;;;;;4801272;29;20030;-93
2021/06/11 07:45:08;;;;;;;10.45;9.25;;;25.70;76.40;;;;;;4800187;29;20042;-92
2021/06/11 07:47:35;;;;;;;9.05;8.15;;;25.80;76.40;;;;;;4790559;29;20051;-94
2021/06/11 07:50:08;;;;;;;9.88;8.85;;;25.80;76.60;;;;;;4798643;29;20047;-88
2021/06/11 07:52:35;;;;;;;11.57;8.43;;;25.90;76.50;;;;;;4776521;29;20062;-83
2021/06/11 07:55:07;;;;;;;9.45;8.55;;;26.10;76.40;;;;;;4806546;29;20076;-83
2021/06/11 07:57:34;;;;;;;9.50;7.93;;;26.30;75.70;;;;;;4818095;29;20058;-84
2021/06/11 08:00:02;;;;;;;12.32;10.35;;;26.50;75.50;;;;;;4778407;29;20046;-83
2021/06/11 08:02:41;;;;;;;11.75;10.55;;;26.50;74.80;;;;;;4800077;29;20050;-83
2021/06/11 08:05:09;;;;;;;12.18;9.55;;;26.30;74.90;;;;;;4786826;29;20053;-84
2021/06/11 08:07:36;;;;;;;10.40;9.02;;;26.30;75.20;;;;;;4771983;29;20057;-83
2021/06/11 08:10:05;;;;;;;11.70;9.30;;;26.40;75.10;;;;;;4822490;29;20491;-84
2021/06/11 08:12:32;;;;;;;10.65;9.55;;;26.40;74.90;;;;;;4791187;29;20035;-84
2021/06/11 08:14:59;;;;;;;11.23;10.02;;;26.60;74.70;;;;;;4792451;29;20047;-84
2021/06/11 08:17:26;;;;;;;10.95;8.93;;;26.60;74.30;;;;;;4804725;29;20051;-84
2021/06/11 08:19:52;;;;;;;11.68;9.77;;;26.80;74.00;;;;;;4786701;29;20051;-84
2021/06/11 08:22:19;;;;;;;12.68;9.30;;;26.90;73.50;;;;;;4791145;29;20038;-83
2021/06/11 08:24:46;;;;;;;10.43;9.00;;;26.90;73.30;;;;;;4818998;29;20495;-83
2021/06/11 08:27:13;;;;;;;10.77;8.13;;;27.00;73.10;;;;;;4779544;29;20512;-82
2021/06/11 08:29:42;;;;;;;8.65;7.53;;;27.10;72.90;;;;;;4790705;29;20042;-83
2021/06/11 08:32:09;;;;;;;11.20;7.97;;;27.10;72.50;;;;;;4794093;29;20038;-83
2021/06/11 08:34:40;;;;;;;9.30;7.25;;;27.10;72.20;;;;;;4774568;29;20046;-84
2021/06/11 08:37:07;;;;;;;10.25;7.15;;;27.10;72.00;;;;;;4793770;29;20049;-84
2021/06/11 08:39:34;;;;;;;8.77;7.47;;;27.20;72.00;;;;;;4808692;29;20042;-81
2021/06/11 08:42:05;;;;;;;7.25;6.43;;;27.30;71.60;;;;;;4793994;29;20474;-83
2021/06/11 08:44:33;;;;;;;7.07;5.68;;;27.40;71.00;;;;;;4795365;29;20050;-83
2021/06/11 08:46:59;;;;;;;6.82;5.43;;;27.40;70.80;;;;;;4788223;29;20502;-82
2021/06/11 08:49:26;;;;;;;7.07;5.78;;;27.40;70.40;;;;;;4790399;29;20039;-83
2021/06/11 08:51:56;;;;;;;5.90;5.20;;;27.40;70.20;;;;;;4796722;29;20039;-84
2021/06/11 08:54:22;;;;;;;7.20;6.50;;;27.60;70.00;;;;;;4768287;29;20589;-82
2021/06/11 08:56:50;;;;;;;6.35;5.43;;;27.70;69.70;;;;;;4781920;29;20061;-83
2021/06/11 08:59:24;;;;;;;7.20;5.57;;;27.70;69.60;;;;;;4798496;29;20053;-83
2021/06/11 09:01:50;;;;;;;5.97;4.60;;;27.80;69.30;;;;;;4796629;29;20062;-84
2021/06/11 09:04:40;;;;;;;6.47;5.88;;;27.90;69.00;;;;;;4810930;29;20050;-85
2021/06/11 09:07:33;;;;;;;5.20;4.65;;;27.90;68.90;;;;;;4811053;29;20050;-84
2021/06/11 09:10:07;;;;;;;4.60;4.15;;;28.00;68.70;;;;;;4799580;29;20042;-83
2021/06/11 09:12:35;;;;;;;5.65;4.80;;;28.10;68.80;;;;;;4815363;29;20054;-84
2021/06/11 09:15:06;;;;;;;5.88;5.38;;;28.30;68.30;;;;;;4809059;29;20035;-82
2021/06/11 09:17:53;;;;;;;4.68;4.22;;;28.30;67.20;;;;;;4813811;29;20880;-83
2021/06/11 09:20:28;;;;;;;9.00;6.07;;;28.30;67.30;;;;;;4807573;29;20054;-83
2021/06/11 09:23:02;;;;;;;5.15;4.68;;;28.30;66.50;;;;;;4793559;29;20045;-82
2021/06/11 09:25:41;;;;;;;13.18;11.70;;;28.30;67.20;;;;;;4828123;29;20042;-82
2021/06/11 09:28:16;;;;;;;12.95;11.73;;;28.50;67.50;;;;;;4823527;29;20047;-86
2021/06/11 09:30:57;;;;;;;10.25;8.48;;;28.60;67.30;;;;;;4802480;29;20506;-86
2021/06/11 09:33:24;;;;;;;7.20;6.60;;;28.70;66.90;;;;;;4794170;29;20054;-86
2021/06/11 09:35:56;;;;;;;8.70;6.70;;;28.80;66.70;;;;;;4804936;29;20050;-84
2021/06/11 09:38:26;;;;;;;;;;;29.00;66.40;;;;;;4825040;29;20054;-84
2021/06/11 09:40:57;;;;;;;9.07;6.87;;;29.20;65.90;;;;;;4809371;29;20288;-84
2021/06/11 09:43:28;;;;;;;10.80;9.57;;;29.30;66.10;;;;;;4816372;29;20065;-84
2021/06/11 09:46:10;;;;;;;8.38;7.50;;;29.40;64.90;;;;;;4797735;29;20054;-89
2021/06/11 09:48:41;;;;;;;;;;;29.50;64.50;;;;;;4806725;29;20053;-85
2021/06/11 09:51:16;;;;;;;6.97;6.32;;;29.70;64.30;;;;;;4809599;29;20387;-86
2021/06/11 09:53:43;;;;;;;6.65;5.95;;;29.80;63.80;;;;;;4811723;29;20057;-84
2021/06/11 09:56:27;;;;;;;7.32;6.63;;;29.80;63.70;;;;;;4825124;29;20047;-88
2021/06/11 09:58:57;;;;;;;9.48;7.90;;;29.90;63.40;;;;;;4812655;29;20394;-92
2021/06/11 10:01:26;;;;;;;7.20;5.75;;;29.90;63.10;;;;;;4815542;29;20516;-90
2021/06/11 10:03:57;;;;;;;6.63;5.95;;;29.80;63.40;;;;;;4799779;29;20043;-86
2021/06/11 10:06:23;;;;;;;5.30;4.80;;;29.90;63.30;;;;;;4823539;29;20065;-86
2021/06/11 10:08:51;;;;;;;5.78;5.28;;;30.10;63.10;;;;;;4784684;29;20054;-85
2021/06/11 10:11:22;;;;;;;8.20;5.82;;;30.20;63.10;;;;;;4797030;29;20042;-85
2021/06/11 10:13:49;;;;;;;5.85;5.25;;;30.20;62.20;;;;;;4812857;29;20047;-88
2021/06/11 10:16:20;;;;;;;6.15;5.60;;;30.40;62.00;;;;;;4793169;29;20042;-84
2021/06/11 10:18:48;;;;;;;6.80;5.05;;;30.60;61.60;;;;;;4782247;29;20046;-84
2021/06/11 10:21:14;;;;;;;6.35;5.70;;;30.80;61.00;;;;;;4808114;29;20065;-86
2021/06/11 10:23:42;;;;;;;5.60;5.10;;;31.00;60.60;;;;;;4809883;29;20061;-82
2021/06/11 10:26:11;;;;;;;5.55;4.57;;;31.10;60.20;;;;;;4794714;29;20050;-83
2021/06/11 10:28:48;;;;;;;6.72;5.10;;;31.20;60.00;;;;;;4813061;29;20038;-83
2021/06/11 10:31:20;;;;;;;5.30;4.80;;;31.20;59.40;;;;;;4828012;29;20046;-83
2021/06/11 10:33:47;;;;;;;6.78;6.18;;;31.30;59.30;;;;;;4822041;29;20050;-84
2021/06/11 10:36:47;;;;;;;5.80;5.28;;;31.50;59.00;;;;;;4811071;29;20573;-82
2021/06/11 10:39:16;;;;;;;6.00;5.50;;;31.70;58.60;;;;;;4819253;29;20544;-85
2021/06/11 10:42:04;;;;;;;7.15;6.45;;;32.10;58.00;;;;;;4820218;29;20054;-85
2021/06/11 10:44:33;;;;;;;9.05;7.10;;;32.20;56.00;;;;;;4802249;29;20033;-84
2021/06/11 10:47:18;;;;;;;8.88;7.97;;;32.10;56.10;;;;;;4800361;29;20046;-85
2021/06/11 10:50:03;;;;;;;6.20;5.53;;;32.10;55.90;;;;;;4817079;29;20046;-85
2021/06/11 10:52:50;;;;;;;5.72;5.22;;;32.30;56.40;;;;;;4821177;29;20054;-85
2021/06/11 10:55:30;;;;;;;;;;;;;;;;;;;;;
2021/06/11 10:59:22;;;;;;;;;;;;;;;;;;;;;
2021/06/11 11:02:59;;;;;;;8.60;6.93;;;33.00;54.70;;;;;;4740530;30;20040;-92
2021/06/11 11:11:53;;;;;;;5.28;4.80;;;33.30;53.20;;;;;;4708705;30;20052;-92
2021/06/11 11:15:55;;;;;;;5.20;4.70;;;33.70;52.40;;;;;;4671333;30;20056;-92
2021/06/11 11:19:51;;;;;;;;;;;;;;;;;;;;;
2021/06/11 11:31:17;;;;;;;6.13;5.60;;;35.30;48.70;;;;;;4770804;29;20039;-92
2021/06/11 11:35:20;;;;;;;;;;;;;;;;;;;;;
2021/06/11 11:38:17;;;;;;;5.55;5.05;;;35.70;48.00;;;;;;4726429;30;20052;-92
2021/06/11 11:41:25;;;;;;;5.65;5.05;;;36.00;46.30;;;;;;4816800;29;20050;-93
2021/06/11 11:44:12;;;;;;;5.97;5.47;;;35.60;46.50;;;;;;4801940;29;20035;-89
2021/06/11 11:47:02;;;;;;;4.25;3.85;;;35.40;46.70;;;;;;4798817;29;20485;-88
2021/06/11 11:49:41;;;;;;;;;;;35.20;46.60;;;;;;4810383;29;20065;-92
2021/06/11 12:05:26;;;;;;;4.07;3.67;;;34.50;46.80;;;;;;4792220;29;20051;-89
2021/06/11 12:07:56;;;;;;;4.00;3.60;;;34.70;47.10;;;;;;4797710;29;20035;-90
2021/06/11 12:10:29;;;;;;;4.40;4.00;;;35.10;46.80;;;;;;4797973;29;20378;-91
2021/06/11 12:12:56;;;;;;;4.43;4.03;;;35.60;45.80;;;;;;4795065;29;20518;-91
2021/06/11 12:15:25;;;;;;;3.78;2.58;;;35.80;45.00;;;;;;4791983;29;20517;-91
2021/06/11 12:17:57;;;;;;;3.03;2.72;;;35.70;45.20;;;;;;4801506;29;20035;-91
2021/06/11 12:20:30;;;;;;;5.50;5.00;;;35.70;45.50;;;;;;4812987;29;20077;-90
2021/06/11 12:23:43;;;;;;;3.67;3.38;;;35.50;45.10;;;;;;4801047;29;20050;-90
2021/06/11 12:26:33;;;;;;;4.97;4.15;;;35.40;45.90;;;;;;4773080;29;20058;-92
2021/06/11 12:29:21;;;;;;;4.65;4.25;;;35.50;45.30;;;;;;4762950;29;20047;-93
2021/06/11 12:32:00;;;;;;;5.28;3.40;;;35.60;44.70;;;;;;4768795;29;20054;-93
2021/06/11 12:34:30;;;;;;;4.82;2.00;;;35.70;44.80;;;;;;4775554;29;20043;-91
2021/06/11 12:37:00;;;;;;;4.07;2.53;;;35.90;44.10;;;;;;4772823;29;20526;-91
2021/06/11 12:39:49;;;;;;;5.03;4.05;;;36.20;43.50;;;;;;4771141;29;20053;-92
2021/06/11 12:42:21;;;;;;;5.90;4.30;;;36.60;43.00;;;;;;4770240;29;20850;-91
2021/06/11 12:44:56;;;;;;;4.93;4.35;;;36.60;42.70;;;;;;4780446;29;20841;-93
2021/06/11 12:47:38;;;;;;;4.00;3.58;;;36.00;42.80;;;;;;4778156;29;20070;-92
2021/06/11 12:50:16;;;;;;;4.22;3.83;;;35.20;43.90;;;;;;4789448;29;20077;-92
2021/06/11 12:52:51;;;;;;;6.90;6.20;;;34.60;44.70;;;;;;4792366;29;20049;-90
2021/06/11 12:55:40;;;;;;;4.93;4.20;;;33.90;45.60;;;;;;4805712;29;20061;-85
2021/06/11 12:58:07;;;;;;;4.32;3.90;;;33.60;46.20;;;;;;4785451;29;20065;-84
2021/06/11 13:00:33;;;;;;;4.07;3.78;;;33.50;46.30;;;;;;4821700;29;20061;-84
2021/06/11 13:03:00;;;;;;;5.18;3.55;;;33.40;46.60;;;;;;4787220;29;20494;-84
2021/06/11 13:05:27;;;;;;;5.53;4.32;;;33.20;46.80;;;;;;4820702;29;20055;-83
2021/06/11 13:07:54;;;;;;;6.25;4.60;;;32.90;46.90;;;;;;4802704;29;20074;-84
2021/06/11 13:10:21;;;;;;;6.72;6.13;;;32.60;47.70;;;;;;4811631;29;20053;-83
2021/06/11 13:12:48;;;;;;;5.88;5.35;;;32.30;48.10;;;;;;4808836;29;20041;-84
2021/06/11 13:15:15;;;;;;;7.65;5.90;;;32.10;48.60;;;;;;4801712;29;20038;-84
2021/06/11 13:17:43;;;;;;;6.65;5.90;;;31.90;49.30;;;;;;4803618;29;20050;-84
2021/06/11 13:20:12;;;;;;;6.18;5.63;;;31.60;49.90;;;;;;4802575;29;20425;-83
2021/06/11 13:22:43;;;;;;;7.72;6.93;;;31.60;50.40;;;;;;4792110;29;20398;-83
2021/06/11 13:25:10;;;;;;;6.82;6.13;;;31.60;50.80;;;;;;4819889;29;20053;-83
2021/06/11 13:27:37;;;;;;;6.30;5.70;;;32.00;50.50;;;;;;4817543;29;20069;-83
2021/06/11 13:30:05;;;;;;;7.05;6.35;;;32.30;49.70;;;;;;4819285;29;20047;-84
2021/06/11 13:32:31;;;;;;;6.95;6.32;;;32.40;49.60;;;;;;4800073;29;20049;-84
2021/06/11 13:35:00;;;;;;;6.78;6.18;;;32.40;49.40;;;;;;4817601;29;20046;-83
2021/06/11 13:37:27;;;;;;;7.85;6.90;;;32.50;49.20;;;;;;4793091;29;20042;-84
2021/06/11 13:39:54;;;;;;;10.15;7.05;;;32.80;49.30;;;;;;4803073;29;20050;-84
2021/06/11 13:42:20;;;;;;;6.10;5.40;;;33.70;48.20;;;;;;4805751;29;20039;-83
2021/06/11 13:44:47;;;;;;;6.05;4.93;;;34.80;46.20;;;;;;4808362;29;20064;-85
2021/06/11 13:47:14;;;;;;;4.75;4.32;;;35.60;44.40;;;;;;4787910;29;20391;-84
2021/06/11 13:49:40;;;;;;;5.95;4.28;;;35.40;44.00;;;;;;4791184;29;20030;-84
2021/06/11 13:52:07;;;;;;;4.82;4.32;;;34.80;44.80;;;;;;4804782;29;20043;-84
2021/06/11 13:54:34;;;;;;;4.13;3.28;;;34.20;45.70;;;;;;4818155;29;20038;-84
2021/06/11 13:57:01;;;;;;;4.47;3.10;;;34.10;46.90;;;;;;4806474;29;20038;-84
2021/06/11 13:59:27;;;;;;;5.63;3.22;;;34.70;46.30;;;;;;4804066;29;20042;-85
2021/06/11 14:01:55;;;;;;;4.70;4.20;;;34.80;45.60;;;;;;4804380;29;20050;-83